Time;durP1;ratioP1;P1;durP2;ratioP2;P2;SDS_P1;SDS_P2;PMS_P1;PMS_P2;Temp;Humidity;BMP_temperature;BMP_pressure;BME280_temperature;BME280_humidity;BME280_pressure;Samples;Min_cycle;Max_cycle;Signal;HPM_P1;HPM_P2
2022/05/07 00:00:34;;;;;;;11.30;10.30;;;10.90;94.20;;;;;;5098817;28;20190;-46
2022/05/07 00:03:00;;;;;;;10.60;9.60;;;10.80;94.20;;;;;;5098637;28;20185;-45
2022/05/07 00:05:28;;;;;;;11.00;9.97;;;10.80;94.50;;;;;;5098220;28;20455;-45
2022/05/07 00:07:54;;;;;;;11.13;10.03;;;10.70;94.20;;;;;;5079611;28;20715;-45
2022/05/07 00:10:20;;;;;;;11.97;10.50;;;10.70;94.20;;;;;;5097488;28;20430;-45
2022/05/07 00:12:45;;;;;;;13.10;9.53;;;10.70;94.20;;;;;;5079578;28;20249;-45
2022/05/07 00:15:11;;;;;;;11.43;9.83;;;10.60;94.20;;;;;;5097785;28;20416;-45
2022/05/07 00:20:21;;;;;;;11.23;10.13;;;10.60;94.30;;;;;;5098101;28;20192;-45
2022/05/07 00:22:47;;;;;;;9.70;8.90;;;10.50;94.30;;;;;;5080294;28;20427;-45
2022/05/07 00:25:13;;;;;;;10.83;9.93;;;10.50;94.40;;;;;;5097784;28;20181;-45
2022/05/07 00:27:39;;;;;;;10.90;9.90;;;10.50;94.40;;;;;;5097729;28;20294;-45
2022/05/07 00:30:06;;;;;;;10.77;9.37;;;10.40;94.40;;;;;;5097588;28;20923;-44
2022/05/07 00:32:31;;;;;;;9.93;9.03;;;10.40;94.40;;;;;;5080257;28;20199;-45
2022/05/07 00:34:57;;;;;;;10.30;9.20;;;10.40;94.40;;;;;;5097290;28;20526;-44
2022/05/07 00:37:24;;;;;;;11.03;9.90;;;10.30;94.30;;;;;;5097144;28;20239;-43
2022/05/07 00:39:50;;;;;;;11.30;10.13;;;10.30;94.30;;;;;;5079672;28;20676;-45
2022/05/07 00:42:17;;;;;;;11.43;9.23;;;10.30;94.30;;;;;;5078060;28;20415;-44
2022/05/07 00:44:43;;;;;;;13.30;10.10;;;10.20;94.30;;;;;;5095874;28;20435;-45
2022/05/07 00:47:14;;;;;;;11.50;10.50;;;10.20;94.30;;;;;;5097143;28;20421;-44
2022/05/07 00:49:44;;;;;;;10.73;9.73;;;10.20;94.30;;;;;;5097178;28;20449;-45
2022/05/07 00:52:09;;;;;;;10.57;9.67;;;10.10;94.30;;;;;;5078678;28;20812;-45
2022/05/07 00:54:35;;;;;;;10.40;9.47;;;10.10;94.40;;;;;;5096039;28;20438;-45
2022/05/07 00:57:02;;;;;;;10.17;9.27;;;10.10;94.40;;;;;;5078077;28;20562;-45
2022/05/07 00:59:27;;;;;;;11.10;10.10;;;10.00;94.40;;;;;;5097186;28;20573;-45
2022/05/07 01:01:53;;;;;;;9.63;8.80;;;10.00;94.40;;;;;;5096585;28;20423;-45
2022/05/07 01:04:19;;;;;;;9.43;8.63;;;10.00;94.50;;;;;;5096210;28;20177;-44
2022/05/07 01:06:45;;;;;;;12.57;9.40;;;10.00;94.50;;;;;;5095099;28;20184;-45
2022/05/07 01:09:11;;;;;;;12.57;9.77;;;9.90;95.10;;;;;;5095745;28;20200;-45
2022/05/07 01:11:37;;;;;;;11.07;10.17;;;9.90;95.10;;;;;;5095793;28;20462;-44
2022/05/07 01:14:02;;;;;;;11.03;9.60;;;9.90;95.20;;;;;;5095140;28;20700;-45
2022/05/07 01:16:28;;;;;;;10.80;9.80;;;9.80;95.20;;;;;;5095320;28;20422;-45
2022/05/07 01:18:54;;;;;;;12.03;10.10;;;9.80;95.30;;;;;;5095493;28;20223;-44
2022/05/07 01:21:19;;;;;;;10.30;9.33;;;9.80;95.20;;;;;;5096800;28;20189;-44
2022/05/07 01:23:47;;;;;;;10.67;9.77;;;9.80;95.20;;;;;;5096804;28;20707;-45
2022/05/07 01:26:14;;;;;;;10.90;9.90;;;9.70;95.20;;;;;;5097108;28;20172;-44
2022/05/07 01:28:40;;;;;;;9.90;9.00;;;9.70;95.20;;;;;;5097641;28;20544;-45
2022/05/07 01:31:06;;;;;;;11.30;9.23;;;9.70;95.30;;;;;;5096181;28;20526;-44
2022/05/07 01:33:34;;;;;;;11.33;9.37;;;9.70;95.30;;;;;;5096117;28;20415;-45
2022/05/07 01:36:01;;;;;;;10.00;9.20;;;9.60;95.30;;;;;;5096119;28;20423;-45
2022/05/07 01:38:27;;;;;;;10.60;9.60;;;9.60;95.30;;;;;;5095303;28;20751;-45
2022/05/07 01:40:53;;;;;;;10.67;9.57;;;9.60;95.40;;;;;;5095604;28;20716;-44
2022/05/07 01:43:19;;;;;;;10.77;9.77;;;9.60;95.40;;;;;;5095250;28;20440;-45
2022/05/07 01:45:45;;;;;;;12.80;10.13;;;9.50;95.40;;;;;;5095314;28;20187;-45
2022/05/07 01:48:11;;;;;;;10.53;9.50;;;9.50;95.50;;;;;;5096324;28;20426;-45
2022/05/07 01:51:20;;;;;;;11.77;10.60;;;9.50;95.50;;;;;;5097234;28;20543;-45
2022/05/07 01:53:46;;;;;;;10.60;9.67;;;9.50;95.60;;;;;;5097103;28;20999;-44
2022/05/07 01:56:11;;;;;;;10.87;9.77;;;9.50;95.60;;;;;;5097335;28;20398;-44
2022/05/07 01:58:37;;;;;;;10.77;9.87;;;9.50;95.60;;;;;;5097568;28;20449;-44
2022/05/07 02:01:03;;;;;;;9.93;9.00;;;9.40;95.60;;;;;;5097233;28;20180;-45
2022/05/07 02:03:28;;;;;;;10.60;9.60;;;9.40;95.60;;;;;;5096829;28;20165;-45
2022/05/07 02:05:55;;;;;;;10.60;9.50;;;9.30;95.60;;;;;;5095147;28;20633;-44
2022/05/07 02:08:21;;;;;;;10.40;9.40;;;9.30;95.60;;;;;;5085695;28;20172;-45
2022/05/07 02:10:46;;;;;;;11.17;9.93;;;9.30;95.60;;;;;;5099993;28;20469;-45
2022/05/07 02:13:12;;;;;;;10.23;9.33;;;9.30;95.60;;;;;;5091850;28;20215;-44
2022/05/07 02:15:37;;;;;;;11.10;10.10;;;9.20;95.50;;;;;;5081732;28;20192;-45
2022/05/07 02:18:03;;;;;;;10.60;9.70;;;9.20;95.60;;;;;;5078967;28;20567;-51
2022/05/07 02:20:29;;;;;;;10.40;9.30;;;9.20;95.60;;;;;;5079013;28;20487;-45
2022/05/07 02:22:55;;;;;;;10.23;9.23;;;9.20;95.60;;;;;;5079938;28;20182;-43
2022/05/07 02:25:22;;;;;;;11.10;10.03;;;9.20;95.60;;;;;;5079819;28;20185;-44
2022/05/07 02:27:48;;;;;;;11.07;10.13;;;9.10;95.60;;;;;;5079476;28;20887;-41
2022/05/07 02:30:14;;;;;;;10.20;9.20;;;9.10;95.60;;;;;;5079128;28;20466;-46
2022/05/07 02:32:40;;;;;;;10.23;9.33;;;9.10;95.60;;;;;;5079872;28;20431;-44
2022/05/07 02:35:06;;;;;;;11.17;9.80;;;9.10;95.60;;;;;;5079484;28;20833;-43
2022/05/07 02:37:31;;;;;;;10.60;9.30;;;9.10;95.60;;;;;;5093379;28;20199;-42
2022/05/07 02:39:57;;;;;;;9.83;8.93;;;9.00;95.50;;;;;;5099088;28;20449;-44
2022/05/07 02:42:39;;;;;;;10.00;9.10;;;9.00;95.60;;;;;;5099592;28;20250;-44
2022/05/07 02:45:09;;;;;;;9.70;8.80;;;9.00;95.60;;;;;;5098856;28;20176;-44
2022/05/07 02:47:36;;;;;;;9.90;9.00;;;8.90;95.50;;;;;;5098943;28;20414;-44
2022/05/07 02:50:03;;;;;;;9.63;8.73;;;8.90;95.50;;;;;;5099002;28;20430;-44
2022/05/07 02:52:32;;;;;;;9.83;8.93;;;8.90;95.60;;;;;;5098956;28;20462;-49
2022/05/07 02:55:05;;;;;;;10.20;9.20;;;8.90;95.60;;;;;;5100008;28;20430;-44
2022/05/07 02:57:30;;;;;;;9.30;8.40;;;8.80;95.50;;;;;;5100048;28;20423;-44
2022/05/07 02:59:56;;;;;;;9.80;8.90;;;8.90;95.60;;;;;;5099898;28;20407;-44
2022/05/07 03:02:22;;;;;;;10.60;9.50;;;8.80;95.80;;;;;;5100225;28;20247;-44
2022/05/07 03:04:49;;;;;;;9.43;8.57;;;8.80;95.50;;;;;;5100349;28;20268;-44
2022/05/07 03:07:15;;;;;;;10.20;9.00;;;8.80;95.50;;;;;;5100006;28;20185;-44
2022/05/07 03:09:41;;;;;;;10.27;9.20;;;8.80;95.50;;;;;;5100196;28;20415;-49
2022/05/07 03:12:09;;;;;;;9.20;8.30;;;8.70;95.50;;;;;;5100052;28;20956;-43
2022/05/07 03:14:35;;;;;;;10.17;9.23;;;8.70;95.50;;;;;;5099259;28;20180;-44
2022/05/07 03:17:00;;;;;;;9.10;8.30;;;8.70;95.50;;;;;;5099176;28;20415;-44
2022/05/07 03:19:26;;;;;;;10.07;8.80;;;8.70;95.60;;;;;;5097728;28;20169;-44
2022/05/07 03:21:52;;;;;;;9.37;8.37;;;8.60;95.60;;;;;;5098845;28;20185;-49
2022/05/07 03:24:18;;;;;;;9.47;8.47;;;8.60;95.60;;;;;;5097995;28;20555;-44
2022/05/07 03:26:44;;;;;;;9.43;8.37;;;8.60;95.60;;;;;;5098271;28;20180;-44
2022/05/07 03:29:10;;;;;;;10.10;9.20;;;8.60;95.60;;;;;;5098740;28;20458;-43
2022/05/07 03:31:38;;;;;;;9.73;8.93;;;8.60;95.60;;;;;;5099038;28;20240;-44
2022/05/07 03:34:08;;;;;;;9.77;8.87;;;8.50;95.50;;;;;;5099078;28;20459;-44
2022/05/07 03:36:34;;;;;;;9.80;8.80;;;8.50;95.40;;;;;;5099788;28;20522;-44
2022/05/07 03:39:00;;;;;;;9.17;8.10;;;8.50;95.40;;;;;;5099334;28;20564;-44
2022/05/07 03:41:26;;;;;;;9.57;8.63;;;8.40;95.40;;;;;;5099272;28;20226;-44
2022/05/07 03:43:51;;;;;;;9.30;8.40;;;8.40;95.40;;;;;;5099347;28;20309;-44
2022/05/07 03:46:17;;;;;;;10.33;9.33;;;8.40;95.40;;;;;;5099021;28;20177;-44
2022/05/07 03:48:43;;;;;;;11.50;10.10;;;8.40;95.40;;;;;;5099294;28;20181;-44
2022/05/07 03:51:08;;;;;;;10.20;9.30;;;8.40;95.50;;;;;;5099349;28;20238;-44
2022/05/07 03:53:36;;;;;;;10.10;9.10;;;8.40;95.50;;;;;;5098248;28;20227;-44
2022/05/07 03:56:03;;;;;;;9.60;8.70;;;8.40;95.60;;;;;;5099208;28;20187;-44
2022/05/07 03:58:29;;;;;;;9.50;8.60;;;8.30;95.60;;;;;;5099173;28;20412;-44
2022/05/07 04:00:56;;;;;;;9.63;8.70;;;8.40;95.60;;;;;;5099414;28;20429;-44
2022/05/07 04:03:22;;;;;;;9.00;8.10;;;8.30;95.60;;;;;;5099004;28;20403;-44
2022/05/07 04:05:48;;;;;;;9.70;8.90;;;8.30;95.60;;;;;;5097624;28;20925;-43
2022/05/07 04:08:14;;;;;;;11.03;9.10;;;8.30;95.60;;;;;;5096980;28;20534;-44
2022/05/07 04:10:40;;;;;;;10.47;9.47;;;8.30;95.60;;;;;;5097517;28;20554;-44
2022/05/07 04:13:06;;;;;;;10.40;9.00;;;8.30;95.70;;;;;;5098001;28;20230;-44
2022/05/07 04:15:32;;;;;;;10.27;9.20;;;8.30;95.70;;;;;;5098089;28;20169;-44
2022/05/07 04:17:58;;;;;;;8.80;8.00;;;8.30;95.60;;;;;;5080109;28;20429;-44
2022/05/07 04:20:24;;;;;;;8.73;7.93;;;8.40;95.60;;;;;;5080925;28;20184;-44
2022/05/07 04:22:50;;;;;;;10.53;8.30;;;8.40;95.50;;;;;;5098848;28;20711;-44
2022/05/07 04:25:16;;;;;;;8.77;7.90;;;8.40;95.50;;;;;;5098016;28;20418;-44
2022/05/07 04:27:41;;;;;;;9.40;8.60;;;8.40;95.40;;;;;;5097272;28;20174;-44
2022/05/07 04:30:07;;;;;;;9.53;8.63;;;8.50;95.50;;;;;;5096930;28;20235;-43
2022/05/07 04:32:33;;;;;;;9.23;8.30;;;8.50;95.40;;;;;;5097240;28;20200;-44
2022/05/07 04:34:59;;;;;;;8.60;7.77;;;8.50;95.40;;;;;;5097154;28;20430;-44
2022/05/07 04:37:25;;;;;;;8.93;8.17;;;8.50;95.40;;;;;;5097257;28;20190;-44
2022/05/07 04:39:51;;;;;;;9.30;8.40;;;8.60;95.40;;;;;;5096866;28;20470;-44
2022/05/07 04:42:17;;;;;;;8.77;7.97;;;8.60;95.30;;;;;;5097702;28;20399;-44
2022/05/07 04:44:43;;;;;;;9.17;8.37;;;8.70;95.30;;;;;;5097593;28;20418;-44
2022/05/07 04:47:09;;;;;;;8.30;7.60;;;8.70;95.20;;;;;;5078760;28;20430;-44
2022/05/07 04:49:36;;;;;;;10.03;8.90;;;8.80;95.10;;;;;;5096835;28;20418;-44
2022/05/07 04:52:05;;;;;;;8.40;7.63;;;8.90;95.10;;;;;;5096496;28;20210;-44
2022/05/07 04:54:31;;;;;;;9.13;8.33;;;8.90;95.00;;;;;;5096159;28;20431;-44
2022/05/07 04:56:57;;;;;;;9.80;8.77;;;9.00;94.90;;;;;;5096909;28;20412;-43
2022/05/07 04:59:23;;;;;;;8.50;7.70;;;9.10;94.90;;;;;;5096433;28;20867;-44
2022/05/07 05:01:48;;;;;;;9.30;8.50;;;9.20;94.80;;;;;;5096520;28;20204;-44
2022/05/07 05:04:14;;;;;;;7.67;6.97;;;9.30;94.80;;;;;;5096263;28;20255;-43
2022/05/07 05:06:40;;;;;;;10.40;9.27;;;9.30;94.70;;;;;;5077926;28;20211;-44
2022/05/07 05:09:07;;;;;;;9.87;8.97;;;9.40;94.70;;;;;;5097565;28;20169;-44
2022/05/07 05:11:34;;;;;;;9.97;9.10;;;9.50;94.70;;;;;;5097793;28;20471;-44
2022/05/07 05:14:00;;;;;;;9.83;8.93;;;9.60;94.60;;;;;;5097292;28;20454;-44
2022/05/07 05:16:26;;;;;;;9.33;8.43;;;9.70;94.50;;;;;;5098005;28;20419;-43
2022/05/07 05:18:52;;;;;;;9.53;8.67;;;9.80;94.50;;;;;;5079506;28;20425;-44
2022/05/07 05:21:18;;;;;;;8.80;8.00;;;9.80;94.30;;;;;;5096614;28;20411;-45
2022/05/07 05:23:46;;;;;;;9.27;8.10;;;9.90;94.30;;;;;;5096483;28;20180;-44
2022/05/07 05:26:15;;;;;;;8.33;7.53;;;10.00;93.50;;;;;;5096317;28;20415;-44
2022/05/07 05:28:42;;;;;;;8.63;7.83;;;10.20;93.50;;;;;;5096183;28;20426;-44
2022/05/07 05:31:09;;;;;;;9.30;8.50;;;10.30;93.30;;;;;;5096438;28;20479;-44
2022/05/07 05:33:35;;;;;;;9.40;8.50;;;10.40;93.20;;;;;;5078831;28;20495;-43
2022/05/07 05:36:00;;;;;;;8.93;8.10;;;10.50;93.00;;;;;;5097028;28;20506;-44
2022/05/07 05:38:26;;;;;;;9.30;8.50;;;10.60;92.90;;;;;;5097496;28;20267;-44
2022/05/07 05:40:52;;;;;;;9.73;8.87;;;10.80;92.80;;;;;;5097500;28;20169;-44
2022/05/07 05:43:18;;;;;;;9.37;8.50;;;11.00;92.70;;;;;;5099261;28;20514;-44
2022/05/07 05:45:43;;;;;;;9.60;8.80;;;11.10;92.70;;;;;;5102012;28;20187;-44
2022/05/07 05:48:09;;;;;;;9.93;8.60;;;11.30;92.60;;;;;;5100990;28;20540;-44
2022/05/07 05:50:35;;;;;;;9.17;8.27;;;11.50;92.30;;;;;;5083027;28;20188;-45
2022/05/07 05:53:01;;;;;;;9.10;8.30;;;11.60;92.00;;;;;;5101348;28;20169;-45
2022/05/07 05:55:27;;;;;;;9.57;8.77;;;11.80;91.80;;;;;;5100795;28;20800;-45
2022/05/07 05:57:53;;;;;;;9.07;8.27;;;12.00;91.60;;;;;;5101343;28;20413;-46
2022/05/07 06:00:19;;;;;;;11.50;10.60;;;12.20;91.60;;;;;;5099944;28;20177;-46
2022/05/07 06:02:45;;;;;;;13.00;11.90;;;12.40;91.60;;;;;;5099994;28;20504;-46
2022/05/07 06:05:12;;;;;;;11.50;10.60;;;12.60;91.60;;;;;;5081202;28;20443;-45
2022/05/07 06:07:38;;;;;;;11.87;10.77;;;12.90;91.40;;;;;;5099836;28;20437;-45
2022/05/07 06:10:06;;;;;;;10.33;9.53;;;13.10;91.30;;;;;;5098947;28;20422;-45
2022/05/07 06:12:33;;;;;;;10.77;9.73;;;13.30;91.10;;;;;;5081855;28;20535;-45
2022/05/07 06:14:58;;;;;;;10.03;9.20;;;13.50;91.00;;;;;;5082244;28;20700;-45
2022/05/07 06:17:27;;;;;;;8.67;7.93;;;13.80;90.90;;;;;;5100259;28;20416;-46
2022/05/07 06:19:53;;;;;;;8.57;7.77;;;14.00;90.80;;;;;;5099891;28;20513;-50
2022/05/07 06:22:19;;;;;;;9.60;8.80;;;14.20;90.50;;;;;;5100334;28;20505;-46
2022/05/07 06:27:31;;;;;;;9.33;8.43;;;14.60;90.20;;;;;;5099175;28;20237;-46
2022/05/07 06:30:01;;;;;;;8.20;7.50;;;14.90;90.00;;;;;;5098729;28;20474;-46
2022/05/07 06:32:31;;;;;;;8.10;7.30;;;15.20;89.50;;;;;;5063283;28;20462;-46
2022/05/07 06:34:57;;;;;;;7.70;6.83;;;15.40;89.10;;;;;;5079794;28;20430;-45
2022/05/07 06:37:23;;;;;;;8.70;7.90;;;15.60;88.60;;;;;;5098586;28;20422;-45
2022/05/07 06:39:49;;;;;;;8.00;7.30;;;15.80;87.80;;;;;;5080619;28;20582;-46
2022/05/07 06:42:15;;;;;;;7.20;6.50;;;16.10;87.10;;;;;;5098682;28;20818;-45
2022/05/07 06:44:42;;;;;;;7.03;6.43;;;16.40;86.30;;;;;;5098630;28;20185;-46
2022/05/07 06:47:07;;;;;;;7.63;7.03;;;16.70;85.70;;;;;;5099440;28;20419;-46
2022/05/07 06:49:34;;;;;;;6.70;6.10;;;16.90;84.70;;;;;;5099070;28;20829;-45
2022/05/07 06:51:59;;;;;;;6.97;6.37;;;17.20;83.80;;;;;;5081549;28;20201;-46
2022/05/07 06:54:25;;;;;;;7.33;6.70;;;17.50;82.80;;;;;;5098232;28;20422;-45
2022/05/07 06:56:51;;;;;;;7.23;6.63;;;17.70;81.70;;;;;;5098973;28;20193;-46
2022/05/07 06:59:17;;;;;;;6.90;6.27;;;18.00;80.80;;;;;;5099324;28;20173;-46
2022/05/07 07:01:43;;;;;;;6.47;5.73;;;18.20;79.60;;;;;;5098481;28;20180;-46
2022/05/07 07:04:11;;;;;;;6.27;5.70;;;18.50;78.50;;;;;;5098256;28;20418;-46
2022/05/07 07:06:37;;;;;;;8.10;5.80;;;18.70;77.40;;;;;;5097825;28;20431;-44
2022/05/07 07:09:03;;;;;;;6.83;6.23;;;19.00;76.50;;;;;;5098639;28;20466;-46
2022/05/07 07:11:29;;;;;;;5.10;4.60;;;19.30;75.50;;;;;;5096354;28;20311;-44
2022/05/07 07:13:55;;;;;;;6.10;5.50;;;19.60;74.30;;;;;;5095826;28;20517;-47
2022/05/07 07:16:20;;;;;;;6.17;5.57;;;19.80;73.40;;;;;;5097062;28;20166;-45
2022/05/07 07:18:46;;;;;;;5.30;4.90;;;20.00;72.20;;;;;;5097632;28;20432;-43
2022/05/07 07:21:12;;;;;;;8.60;5.77;;;20.30;71.30;;;;;;5098143;28;20179;-47
2022/05/07 07:23:39;;;;;;;6.93;6.27;;;20.60;69.80;;;;;;5097485;28;20540;-48
2022/05/07 07:26:04;;;;;;;7.37;4.93;;;20.80;68.60;;;;;;5098127;28;20530;-44
2022/05/07 07:28:31;;;;;;;5.50;5.10;;;21.10;67.50;;;;;;5097667;28;20516;-43
2022/05/07 07:30:58;;;;;;;6.37;5.00;;;21.40;66.40;;;;;;5097076;28;20225;-44
2022/05/07 07:33:23;;;;;;;6.13;5.30;;;21.70;65.10;;;;;;5097426;28;20446;-47
2022/05/07 07:35:49;;;;;;;5.40;4.90;;;22.10;63.80;;;;;;5080135;28;20437;-44
2022/05/07 07:38:15;;;;;;;6.67;5.87;;;22.40;62.20;;;;;;5097707;28;20188;-47
2022/05/07 07:40:43;;;;;;;7.63;5.87;;;22.60;59.40;;;;;;5079021;28;20434;-46
2022/05/07 07:43:10;;;;;;;5.43;4.93;;;22.80;58.20;;;;;;5079555;28;20175;-44
2022/05/07 07:48:21;;;;;;;5.90;5.30;;;23.40;57.30;;;;;;5097449;28;20427;-50
2022/05/07 07:50:50;;;;;;;6.10;5.50;;;23.80;56.40;;;;;;5097752;28;20465;-44
2022/05/07 07:53:16;;;;;;;5.30;4.80;;;24.10;55.80;;;;;;5096492;28;20175;-48
2022/05/07 07:55:42;;;;;;;5.87;5.37;;;24.40;55.40;;;;;;5079479;28;20808;-46
2022/05/07 07:58:09;;;;;;;6.97;6.37;;;24.70;54.20;;;;;;5097088;28;20501;-44
2022/05/07 08:00:36;;;;;;;8.17;7.37;;;25.10;53.20;;;;;;5097894;28;20442;-45
2022/05/07 08:03:03;;;;;;;7.90;7.13;;;25.40;51.80;;;;;;5097142;28;20461;-46
2022/05/07 08:05:31;;;;;;;8.17;7.47;;;25.70;50.80;;;;;;5096279;28;20455;-44
2022/05/07 08:13:30;;;;;;;12.53;7.67;;;26.90;49.00;;;;;;5095124;28;20433;-47
2022/05/07 08:15:56;;;;;;;8.03;7.33;;;27.30;48.10;;;;;;5095745;28;20518;-46
2022/05/07 08:18:22;;;;;;;8.93;8.03;;;27.50;47.20;;;;;;5095382;28;20460;-45
2022/05/07 08:20:47;;;;;;;8.87;8.13;;;27.80;46.00;;;;;;5095600;28;20184;-44
2022/05/07 08:23:13;;;;;;;8.47;7.67;;;28.00;44.90;;;;;;5095774;28;20173;-44
2022/05/07 08:25:39;;;;;;;7.60;6.93;;;28.20;44.20;;;;;;5096957;28;20195;-45
2022/05/07 08:28:05;;;;;;;8.87;8.03;;;28.70;43.80;;;;;;5096635;28;20176;-44
2022/05/07 08:30:31;;;;;;;7.53;6.93;;;29.10;42.90;;;;;;5097192;28;20230;-46
2022/05/07 08:32:57;;;;;;;8.13;7.53;;;29.70;41.90;;;;;;5097562;28;20422;-44
2022/05/07 08:35:23;;;;;;;7.60;7.00;;;30.20;40.90;;;;;;5096861;28;20429;-46
2022/05/07 08:37:50;;;;;;;8.40;7.57;;;30.60;40.00;;;;;;5096128;28;20419;-45
2022/05/07 08:40:18;;;;;;;7.50;6.80;;;31.10;39.10;;;;;;5079671;28;20430;-50
2022/05/07 08:42:44;;;;;;;6.60;6.10;;;31.50;38.30;;;;;;5097304;28;20398;-43
2022/05/07 08:45:12;;;;;;;9.03;8.23;;;32.00;37.50;;;;;;5095281;28;20919;-47
2022/05/07 08:47:39;;;;;;;7.37;6.77;;;32.50;36.60;;;;;;5095616;28;20447;-43
2022/05/07 08:50:08;;;;;;;7.10;6.60;;;32.70;35.90;;;;;;5096316;28;20797;-47
2022/05/07 08:52:36;;;;;;;7.27;6.67;;;32.90;35.40;;;;;;5095340;28;20478;-48
2022/05/07 08:55:02;;;;;;;6.63;6.00;;;33.30;35.00;;;;;;5076878;28;20406;-47
2022/05/07 08:57:29;;;;;;;6.07;5.47;;;33.50;33.80;;;;;;5077957;28;20453;-44
2022/05/07 08:59:55;;;;;;;6.23;4.60;;;33.60;33.40;;;;;;5093834;28;20497;-47
2022/05/07 09:02:21;;;;;;;5.40;4.07;;;33.90;32.20;;;;;;5096171;28;20477;-47
2022/05/07 09:04:57;;;;;;;6.53;5.10;;;34.00;31.40;;;;;;5095097;28;20173;-46
2022/05/07 09:07:23;;;;;;;5.07;4.70;;;34.00;31.20;;;;;;5096196;28;20186;-45
2022/05/07 09:09:51;;;;;;;7.23;4.50;;;34.40;31.10;;;;;;5095812;28;20399;-45
2022/05/07 09:12:25;;;;;;;6.70;4.30;;;34.70;30.80;;;;;;5094912;28;21046;-45
2022/05/07 09:14:51;;;;;;;5.40;5.00;;;35.10;30.40;;;;;;5096331;28;20515;-46
2022/05/07 09:17:20;;;;;;;4.77;4.37;;;35.40;30.00;;;;;;5096222;28;20474;-47
2022/05/07 09:19:45;;;;;;;4.50;4.10;;;35.80;29.70;;;;;;5096830;28;20172;-47
2022/05/07 09:22:11;;;;;;;5.23;4.83;;;36.20;29.50;;;;;;5096767;28;20381;-49
2022/05/07 09:24:38;;;;;;;4.67;4.27;;;36.60;28.80;;;;;;5095398;28;20180;-46
2022/05/07 09:27:04;;;;;;;3.97;3.57;;;36.90;28.30;;;;;;5078992;28;20425;-43
2022/05/07 09:29:31;;;;;;;4.13;3.83;;;37.10;27.70;;;;;;5096554;28;20503;-46
2022/05/07 09:32:11;;;;;;;5.27;3.60;;;37.30;27.20;;;;;;5096112;28;20884;-44
2022/05/07 09:37:35;;;;;;;3.93;3.63;;;38.30;26.90;;;;;;5095088;28;20419;-44
2022/05/07 09:40:05;;;;;;;3.73;3.43;;;39.00;26.40;;;;;;5094269;28;20426;-46
2022/05/07 09:42:33;;;;;;;4.17;3.77;;;39.70;25.70;;;;;;5077152;28;20519;-44
2022/05/07 09:45:01;;;;;;;2.83;2.63;;;40.40;25.70;;;;;;5077452;28;20727;-44
2022/05/07 09:47:27;;;;;;;3.57;3.27;;;41.20;25.10;;;;;;5095545;28;20396;-46
2022/05/07 09:57:30;;;;;;;3.37;3.07;;;42.80;24.40;;;;;;5059075;28;20786;-44
2022/05/07 09:58:10;;;;;;;4.90;3.13;;;44.30;23.70;;;;;;5059791;28;20756;-46
2022/05/07 10:00:40;;;;;;;4.00;3.70;;;44.90;23.50;;;;;;5056610;28;20438;-48
2022/05/07 10:03:28;;;;;;;3.30;2.90;;;45.20;22.80;;;;;;5057533;28;20231;-45
2022/05/07 10:06:12;;;;;;;2.80;2.60;;;45.50;22.70;;;;;;5043869;28;20537;-47
2022/05/07 10:09:02;;;;;;;3.77;3.10;;;45.90;22.40;;;;;;5074054;28;20440;-46
2022/05/07 10:11:28;;;;;;;2.93;2.30;;;46.30;22.40;;;;;;5074245;28;20410;-44
2022/05/07 10:13:58;;;;;;;3.00;2.73;;;46.60;22.30;;;;;;5074119;28;20680;-44
2022/05/07 10:16:29;;;;;;;8.33;3.50;;;46.90;21.90;;;;;;5076234;28;20409;-43
2022/05/07 10:18:55;;;;;;;7.07;3.50;;;47.40;21.90;;;;;;5082535;28;20914;-47
2022/05/07 10:21:21;;;;;;;46.53;10.63;;;47.80;21.80;;;;;;5095671;28;20495;-42
2022/05/07 10:23:57;;;;;;;30.43;7.73;;;48.20;21.50;;;;;;5076867;28;20421;-44
2022/05/07 10:26:43;;;;;;;34.13;8.07;;;48.50;21.50;;;;;;5093706;28;20427;-43
2022/05/07 10:29:25;;;;;;;47.03;11.67;;;48.40;21.20;;;;;;5096494;28;20702;-46
2022/05/07 10:32:04;;;;;;;24.40;7.00;;;46.80;21.20;;;;;;5077652;28;20494;-49
2022/05/07 10:34:29;;;;;;;8.27;4.23;;;45.90;21.60;;;;;;5075147;28;20872;-45
2022/05/07 10:37:05;;;;;;;4.70;3.40;;;46.10;21.30;;;;;;5075784;28;20431;-45
2022/05/07 10:39:31;;;;;;;4.80;3.00;;;46.70;21.20;;;;;;5077013;28;20233;-47
2022/05/07 10:41:57;;;;;;;4.50;3.00;;;45.80;21.20;;;;;;5076649;28;20526;-44
2022/05/07 10:44:35;;;;;;;3.70;3.00;;;45.80;21.30;;;;;;5076494;28;20470;-45
2022/05/07 10:47:15;;;;;;;4.43;2.60;;;46.60;21.30;;;;;;5075438;28;20485;-45
2022/05/07 10:49:54;;;;;;;3.00;2.07;;;47.10;21.00;;;;;;5075580;28;20582;-47
2022/05/07 10:52:33;;;;;;;2.50;2.23;;;47.90;21.00;;;;;;5077356;28;20414;-44
2022/05/07 10:55:07;;;;;;;2.73;2.53;;;48.70;20.60;;;;;;5076443;28;20887;-47
2022/05/07 10:57:44;;;;;;;7.07;3.13;;;48.90;20.50;;;;;;5075675;28;20409;-44
2022/05/07 11:00:17;;;;;;;29.20;6.53;;;49.60;20.60;;;;;;5076084;28;20483;-47
2022/05/07 11:02:45;;;;;;;18.77;5.57;;;50.40;20.50;;;;;;5075075;28;20471;-46
2022/05/07 11:05:11;;;;;;;9.83;3.77;;;51.10;20.40;;;;;;5075881;28;20459;-44
2022/05/07 11:07:38;;;;;;;20.00;5.40;;;50.90;20.30;;;;;;5077848;28;20517;-43
2022/05/07 11:10:04;;;;;;;12.57;4.10;;;49.40;20.10;;;;;;5077346;28;20481;-47
2022/05/07 11:12:30;;;;;;;8.73;3.07;;;47.30;20.20;;;;;;5078639;28;20425;-44
2022/05/07 11:14:56;;;;;;;2.73;2.30;;;45.70;20.60;;;;;;5077351;28;20734;-46
2022/05/07 11:17:33;;;;;;;3.00;2.43;;;44.40;20.80;;;;;;5076687;28;20294;-45
2022/05/07 11:19:58;;;;;;;3.20;2.90;;;43.00;21.20;;;;;;5077583;28;20444;-48
2022/05/07 11:22:29;;;;;;;3.93;2.50;;;41.90;21.50;;;;;;5077634;28;20466;-43
2022/05/07 11:24:57;;;;;;;3.23;2.47;;;41.00;22.20;;;;;;5078737;28;20190;-46
2022/05/07 11:27:26;;;;;;;3.10;2.80;;;40.40;22.30;;;;;;5077628;28;20476;-46
2022/05/07 11:29:53;;;;;;;3.17;2.83;;;40.10;22.70;;;;;;5079683;28;20877;-44
2022/05/07 11:32:19;;;;;;;3.70;3.40;;;39.90;23.10;;;;;;5098230;28;20464;-46
2022/05/07 11:34:45;;;;;;;3.27;2.90;;;39.20;23.70;;;;;;5097565;28;20535;-46
2022/05/07 11:37:14;;;;;;;5.40;3.67;;;38.60;23.60;;;;;;5098518;28;20872;-48
2022/05/07 11:39:46;;;;;;;3.50;3.20;;;37.90;24.00;;;;;;5097941;28;20173;-47
2022/05/07 11:42:12;;;;;;;3.70;3.40;;;37.00;24.30;;;;;;5096446;28;20486;-44
2022/05/07 11:47:23;;;;;;;3.97;3.67;;;35.80;25.00;;;;;;5096825;28;20667;-47
2022/05/07 11:50:07;;;;;;;3.90;3.50;;;36.20;25.20;;;;;;5097250;28;20415;-48
2022/05/07 11:52:34;;;;;;;3.70;3.40;;;36.30;24.90;;;;;;5079304;28;20435;-45
2022/05/07 11:55:05;;;;;;;5.03;3.60;;;36.50;24.70;;;;;;5097412;28;20416;-46
2022/05/07 11:57:32;;;;;;;4.87;3.47;;;36.40;24.20;;;;;;5097478;28;20424;-46
2022/05/07 12:00:15;;;;;;;2.90;2.70;;;36.20;24.40;;;;;;5079678;28;20682;-45
2022/05/07 12:02:59;;;;;;;4.30;3.30;;;36.00;24.70;;;;;;5098293;28;20444;-45
2022/05/07 12:05:26;;;;;;;4.83;3.47;;;35.70;25.00;;;;;;5079251;28;20709;-47
2022/05/07 12:07:53;;;;;;;6.37;4.20;;;35.40;25.10;;;;;;5062075;28;20443;-46
2022/05/07 12:10:20;;;;;;;40.17;8.40;;;35.20;25.20;;;;;;5097469;28;20431;-46
2022/05/07 12:12:46;;;;;;;17.93;6.40;;;34.90;25.10;;;;;;5079478;28;20405;-47
2022/05/07 12:15:12;;;;;;;9.33;4.27;;;35.70;25.20;;;;;;5078352;28;20933;-47
2022/05/07 12:17:53;;;;;;;5.60;3.40;;;36.90;24.90;;;;;;5062730;28;20425;-44
2022/05/07 12:20:20;;;;;;;11.23;4.37;;;38.40;24.50;;;;;;5079194;28;20543;-47
2022/05/07 12:30:59;;;;;;;63.93;11.53;;;44.20;22.20;;;;;;5097379;28;20591;-44
2022/05/07 12:33:24;;;;;;;26.80;6.20;;;45.30;21.80;;;;;;5097503;28;20509;-45
2022/05/07 12:35:52;;;;;;;16.80;4.00;;;46.00;21.90;;;;;;5097761;28;20175;-46
2022/05/07 12:38:17;;;;;;;4.60;3.33;;;46.70;21.90;;;;;;5096921;28;20188;-46
2022/05/07 12:40:43;;;;;;;3.40;2.63;;;47.40;21.60;;;;;;5096227;28;20830;-48
2022/05/07 12:43:09;;;;;;;2.93;2.53;;;47.70;21.30;;;;;;5095793;28;20166;-45
2022/05/07 12:45:35;;;;;;;2.87;2.60;;;48.20;21.20;;;;;;5095424;28;20174;-45
2022/05/07 12:48:01;;;;;;;2.63;2.43;;;47.30;21.00;;;;;;5095989;28;20178;-45
2022/05/07 12:50:27;;;;;;;2.70;2.50;;;45.80;21.20;;;;;;5096598;28;20189;-45
2022/05/07 12:52:52;;;;;;;2.90;2.70;;;44.60;21.50;;;;;;5079051;28;20421;-44
2022/05/07 12:55:18;;;;;;;3.10;2.90;;;43.30;21.80;;;;;;5079292;28;20191;-54
2022/05/07 12:57:44;;;;;;;2.77;2.57;;;42.20;22.10;;;;;;5095673;28;20174;-45
2022/05/07 13:00:10;;;;;;;3.70;3.30;;;41.60;22.30;;;;;;5095202;28;20305;-46
2022/05/07 13:02:37;;;;;;;2.50;2.30;;;41.30;22.50;;;;;;5096397;28;20216;-43
2022/05/07 13:05:03;;;;;;;2.87;2.67;;;41.10;22.50;;;;;;5095006;28;20430;-47
2022/05/07 13:07:29;;;;;;;3.10;2.80;;;41.00;22.40;;;;;;5094559;28;20444;-48
2022/05/07 13:09:55;;;;;;;3.30;2.70;;;40.90;22.40;;;;;;5094397;28;20456;-43
2022/05/07 13:12:24;;;;;;;2.80;2.60;;;40.90;22.40;;;;;;5077626;28;20581;-47
2022/05/07 13:14:50;;;;;;;3.20;2.33;;;41.40;22.30;;;;;;5096163;28;20180;-50
2022/05/07 13:17:16;;;;;;;3.37;2.87;;;42.20;22.10;;;;;;5096858;28;20696;-48
2022/05/07 13:19:42;;;;;;;2.97;2.77;;;43.30;22.10;;;;;;5096304;28;20439;-48